sensor_id;sensor_type;location;lat;lon;timestamp;pressure;altitude;pressure_sealevel;temperature;humidity
79150;BME280;68563;45.644;13.782;2023-09-19T00:02:14;100635.25;;;23.98;66.39
79150;BME280;68563;45.644;13.782;2023-09-19T00:04:39;100632.50;;;24.00;66.52
79150;BME280;68563;45.644;13.782;2023-09-19T00:07:05;100633.44;;;23.99;66.35
79150;BME280;68563;45.644;13.782;2023-09-19T00:09:31;100626.47;;;23.98;66.38
79150;BME280;68563;45.644;13.782;2023-09-19T00:12:05;100630.94;;;23.97;66.36
79150;BME280;68563;45.644;13.782;2023-09-19T00:14:31;100626.47;;;23.98;66.63
79150;BME280;68563;45.644;13.782;2023-09-19T00:16:59;100620.75;;;23.91;66.81
79150;BME280;68563;45.644;13.782;2023-09-19T00:19:26;100625.00;;;23.94;66.72
79150;BME280;68563;45.644;13.782;2023-09-19T00:21:51;100621.28;;;23.96;66.16
79150;BME280;68563;45.644;13.782;2023-09-19T00:24:19;100623.50;;;24.02;66.17
79150;BME280;68563;45.644;13.782;2023-09-19T00:26:44;100617.38;;;24.02;66.05
79150;BME280;68563;45.644;13.782;2023-09-19T00:29:12;100620.09;;;24.00;66.20
79150;BME280;68563;45.644;13.782;2023-09-19T00:31:43;100618.22;;;24.02;66.39
79150;BME280;68563;45.644;13.782;2023-09-19T00:34:08;100617.59;;;23.99;66.29
79150;BME280;68563;45.644;13.782;2023-09-19T00:36:36;100620.84;;;24.02;65.60
79150;BME280;68563;45.644;13.782;2023-09-19T00:39:04;100615.06;;;23.97;66.52
79150;BME280;68563;45.644;13.782;2023-09-19T00:41:31;100618.53;;;23.98;66.25
79150;BME280;68563;45.644;13.782;2023-09-19T00:43:57;100609.13;;;23.94;66.02
79150;BME280;68563;45.644;13.782;2023-09-19T00:46:22;100613.03;;;24.01;66.17
79150;BME280;68563;45.644;13.782;2023-09-19T00:48:48;100612.19;;;24.00;66.02
79150;BME280;68563;45.644;13.782;2023-09-19T00:51:15;100615.81;;;23.99;65.89
79150;BME280;68563;45.644;13.782;2023-09-19T00:53:45;100616.75;;;23.98;66.33
79150;BME280;68563;45.644;13.782;2023-09-19T00:56:11;100611.66;;;23.95;65.98
79150;BME280;68563;45.644;13.782;2023-09-19T00:58:37;100613.34;;;23.96;65.83
79150;BME280;68563;45.644;13.782;2023-09-19T01:01:04;100611.47;;;23.98;65.97
79150;BME280;68563;45.644;13.782;2023-09-19T01:03:33;100607.00;;;23.99;66.19
79150;BME280;68563;45.644;13.782;2023-09-19T01:05:59;100612.28;;;23.99;66.19
79150;BME280;68563;45.644;13.782;2023-09-19T01:08:26;100609.66;;;23.99;65.76
79150;BME280;68563;45.644;13.782;2023-09-19T01:11:17;100604.25;;;24.00;65.78
79150;BME280;68563;45.644;13.782;2023-09-19T01:14:53;100607.94;;;23.98;66.09
79150;BME280;68563;45.644;13.782;2023-09-19T01:17:16;100603.41;;;24.00;66.00
79150;BME280;68563;45.644;13.782;2023-09-19T01:22:37;100602.56;;;23.99;66.17
79150;BME280;68563;45.644;13.782;2023-09-19T01:31:04;100604.69;;;23.94;66.44
79150;BME280;68563;45.644;13.782;2023-09-19T01:33:53;100601.94;;;23.96;66.39
79150;BME280;68563;45.644;13.782;2023-09-19T01:36:22;100606.81;;;24.02;66.13
79150;BME280;68563;45.644;13.782;2023-09-19T01:38:48;100611.34;;;24.00;66.48
79150;BME280;68563;45.644;13.782;2023-09-19T01:41:17;100608.81;;;23.98;66.29
79150;BME280;68563;45.644;13.782;2023-09-19T01:43:49;100599.31;;;23.96;65.96
79150;BME280;68563;45.644;13.782;2023-09-19T01:46:25;100607.75;;;24.01;66.13
79150;BME280;68563;45.644;13.782;2023-09-19T01:52:02;100604.78;;;23.93;66.52
79150;BME280;68563;45.644;13.782;2023-09-19T01:54:33;100604.69;;;23.94;66.77
79150;BME280;68563;45.644;13.782;2023-09-19T02:00:08;100609.13;;;23.94;66.55
79150;BME280;68563;45.644;13.782;2023-09-19T02:02:37;100602.16;;;23.93;66.60
79150;BME280;68563;45.644;13.782;2023-09-19T02:05:04;100605.63;;;23.93;66.51
79150;BME280;68563;45.644;13.782;2023-09-19T02:07:30;100611.47;;;23.98;66.25
79150;BME280;68563;45.644;13.782;2023-09-19T02:10:00;100612.53;;;23.96;66.53
79150;BME280;68563;45.644;13.782;2023-09-19T02:12:26;100611.66;;;23.95;66.35
79150;BME280;68563;45.644;13.782;2023-09-19T02:14:51;100613.47;;;23.95;66.39
79150;BME280;68563;45.644;13.782;2023-09-19T02:17:17;100615.25;;;23.94;66.30
79150;BME280;68563;45.644;13.782;2023-09-19T02:19:42;100612.53;;;23.96;66.36
79150;BME280;68563;45.644;13.782;2023-09-19T02:22:08;100605.72;;;23.92;66.32
79150;BME280;68563;45.644;13.782;2023-09-19T02:24:38;100605.63;;;23.93;66.39
79150;BME280;68563;45.644;13.782;2023-09-19T02:27:04;100605.72;;;23.92;66.54
79150;BME280;68563;45.644;13.782;2023-09-19T02:29:30;100601.28;;;23.92;66.59
79150;BME280;68563;45.644;13.782;2023-09-19T02:31:56;100598.72;;;23.90;66.51
79150;BME280;68563;45.644;13.782;2023-09-19T02:34:22;100595.03;;;23.93;66.73
79150;BME280;68563;45.644;13.782;2023-09-19T02:36:48;100598.56;;;23.94;66.34
79150;BME280;68563;45.644;13.782;2023-09-19T02:39:13;100593.34;;;23.92;66.65
79150;BME280;68563;45.644;13.782;2023-09-19T02:41:38;100599.31;;;23.96;66.15
79150;BME280;68563;45.644;13.782;2023-09-19T02:44:04;100601.19;;;23.94;66.44
79150;BME280;68563;45.644;13.782;2023-09-19T02:46:35;100600.13;;;23.96;66.26
79150;BME280;68563;45.644;13.782;2023-09-19T02:49:04;100594.09;;;23.94;66.44
79150;BME280;68563;45.644;13.782;2023-09-19T02:51:32;100596.66;;;23.96;66.21
79150;BME280;68563;45.644;13.782;2023-09-19T02:53:59;100597.38;;;23.98;66.05
79150;BME280;68563;45.644;13.782;2023-09-19T02:56:24;100594.09;;;23.94;66.44
79150;BME280;68563;45.644;13.782;2023-09-19T02:58:50;100600.53;;;23.90;66.69
79150;BME280;68563;45.644;13.782;2023-09-19T03:01:16;100602.97;;;23.93;66.78
79150;BME280;68563;45.644;13.782;2023-09-19T03:03:44;100591.44;;;23.94;66.81
79150;BME280;68563;45.644;13.782;2023-09-19T03:06:10;100585.81;;;23.86;66.82
79150;BME280;68563;45.644;13.782;2023-09-19T03:08:38;100602.78;;;23.96;66.44
79150;BME280;68563;45.644;13.782;2023-09-19T03:11:07;100596.41;;;23.86;66.58
79150;BME280;68563;45.644;13.782;2023-09-19T03:13:35;100607.53;;;23.91;66.70
79150;BME280;68563;45.644;13.782;2023-09-19T03:16:03;100604.00;;;23.90;66.95
79150;BME280;68563;45.644;13.782;2023-09-19T03:18:34;100598.84;;;23.89;66.93
79150;BME280;68563;45.644;13.782;2023-09-19T03:21:00;100600.66;;;23.88;66.82
79150;BME280;68563;45.644;13.782;2023-09-19T03:23:26;100598.09;;;23.87;67.00
79150;BME280;68563;45.644;13.782;2023-09-19T03:25:53;100604.00;;;23.90;66.86
79150;BME280;68563;45.644;13.782;2023-09-19T03:28:18;100603.38;;;23.87;66.63
79150;BME280;68563;45.644;13.782;2023-09-19T03:30:45;100602.31;;;23.89;66.86
79150;BME280;68563;45.644;13.782;2023-09-19T03:33:11;100603.94;;;23.92;66.61
79150;BME280;68563;45.644;13.782;2023-09-19T03:35:37;100603.38;;;23.87;66.87
79150;BME280;68563;45.644;13.782;2023-09-19T03:38:03;100604.25;;;23.87;66.98
79150;BME280;68563;45.644;13.782;2023-09-19T03:40:29;100595.56;;;23.85;67.29
79150;BME280;68563;45.644;13.782;2023-09-19T03:42:55;100609.63;;;23.86;67.41
79150;BME280;68563;45.644;13.782;2023-09-19T03:45:20;100603.38;;;23.87;67.31
79150;BME280;68563;45.644;13.782;2023-09-19T03:47:46;100603.50;;;23.85;66.99
79150;BME280;68563;45.644;13.782;2023-09-19T03:50:13;100602.44;;;23.88;67.16
79150;BME280;68563;45.644;13.782;2023-09-19T03:52:45;100608.66;;;23.87;67.17
79150;BME280;68563;45.644;13.782;2023-09-19T03:55:10;100609.41;;;23.89;67.40
79150;BME280;68563;45.644;13.782;2023-09-19T03:57:36;100602.97;;;23.93;66.71
79150;BME280;68563;45.644;13.782;2023-09-19T04:00:02;100600.13;;;23.96;67.17
79150;BME280;68563;45.644;13.782;2023-09-19T04:02:27;100592.19;;;23.96;67.31
79150;BME280;68563;45.644;13.782;2023-09-19T04:04:58;100605.63;;;23.93;67.43
79150;BME280;68563;45.644;13.782;2023-09-19T04:07:23;100597.91;;;23.90;67.00
79150;BME280;68563;45.644;13.782;2023-09-19T04:09:51;100600.66;;;23.88;67.38
79150;BME280;68563;45.644;13.782;2023-09-19T04:12:18;100604.34;;;23.86;67.65
79150;BME280;68563;45.644;13.782;2023-09-19T04:14:44;100606.16;;;23.85;67.31
79150;BME280;68563;45.644;13.782;2023-09-19T04:17:09;100609.63;;;23.86;67.20
79150;BME280;68563;45.644;13.782;2023-09-19T04:19:36;100612.63;;;23.81;67.43
79150;BME280;68563;45.644;13.782;2023-09-19T04:22:01;100605.75;;;23.79;67.55
79150;BME280;68563;45.644;13.782;2023-09-19T04:24:28;100618.41;;;23.86;67.27
79150;BME280;68563;45.644;13.782;2023-09-19T04:26:53;100621.19;;;23.85;67.08
79150;BME280;68563;45.644;13.782;2023-09-19T04:29:18;100614.91;;;23.86;67.06
79150;BME280;68563;45.644;13.782;2023-09-19T04:31:45;100616.53;;;23.88;66.71
79150;BME280;68563;45.644;13.782;2023-09-19T04:34:11;100618.63;;;23.83;66.70
79150;BME280;68563;45.644;13.782;2023-09-19T04:36:42;100620.44;;;23.83;66.71
79150;BME280;68563;45.644;13.782;2023-09-19T04:39:09;100624.78;;;23.84;66.33
79150;BME280;68563;45.644;13.782;2023-09-19T04:41:36;100621.38;;;23.82;66.43
79150;BME280;68563;45.644;13.782;2023-09-19T04:44:04;100625.84;;;23.81;66.62
79150;BME280;68563;45.644;13.782;2023-09-19T04:46:30;100626.66;;;23.82;66.33
79150;BME280;68563;45.644;13.782;2023-09-19T04:48:55;100631.22;;;23.80;66.53
79150;BME280;68563;45.644;13.782;2023-09-19T04:51:21;100631.56;;;23.75;66.32
79150;BME280;68563;45.644;13.782;2023-09-19T04:53:46;100640.50;;;23.72;66.75
79150;BME280;68563;45.644;13.782;2023-09-19T04:56:13;100641.38;;;23.73;66.73
79150;BME280;68563;45.644;13.782;2023-09-19T04:58:38;100634.41;;;23.72;66.64
79150;BME280;68563;45.644;13.782;2023-09-19T05:01:04;100631.13;;;23.68;66.71
79150;BME280;68563;45.644;13.782;2023-09-19T05:03:29;100650.38;;;23.70;66.92
79150;BME280;68563;45.644;13.782;2023-09-19T05:05:55;100648.69;;;23.69;66.25
79150;BME280;68563;45.644;13.782;2023-09-19T05:08:20;100650.56;;;23.67;66.57
79150;BME280;68563;45.644;13.782;2023-09-19T05:10:47;100649.44;;;23.71;66.54
79150;BME280;68563;45.644;13.782;2023-09-19T05:13:14;100644.84;;;23.73;66.20
79150;BME280;68563;45.644;13.782;2023-09-19T05:15:39;100651.31;;;23.69;66.67
79150;BME280;68563;45.644;13.782;2023-09-19T05:18:05;100653.72;;;23.72;66.59
79150;BME280;68563;45.644;13.782;2023-09-19T05:20:31;100654.78;;;23.70;66.78
79150;BME280;68563;45.644;13.782;2023-09-19T05:23:04;100651.44;;;23.68;66.90
79150;BME280;68563;45.644;13.782;2023-09-19T05:25:37;100658.19;;;23.72;66.64
79150;BME280;68563;45.644;13.782;2023-09-19T05:28:03;100650.38;;;23.70;66.98
79150;BME280;68563;45.644;13.782;2023-09-19T05:30:31;100652.06;;;23.71;66.51
79150;BME280;68563;45.644;13.782;2023-09-19T05:32:57;100653.53;;;23.76;66.76
79150;BME280;68563;45.644;13.782;2023-09-19T05:35:23;100652.16;;;23.70;66.53
79150;BME280;68563;45.644;13.782;2023-09-19T05:37:52;100658.06;;;23.73;66.71
79150;BME280;68563;45.644;13.782;2023-09-19T05:40:18;100659.25;;;23.69;66.70
79150;BME280;68563;45.644;13.782;2023-09-19T05:42:44;100651.00;;;23.74;66.93
79150;BME280;68563;45.644;13.782;2023-09-19T05:45:11;100660.94;;;23.70;67.07
79150;BME280;68563;45.644;13.782;2023-09-19T05:47:42;100653.53;;;23.76;66.88
79150;BME280;68563;45.644;13.782;2023-09-19T05:50:10;100655.53;;;23.72;67.00
79150;BME280;68563;45.644;13.782;2023-09-19T05:52:36;100652.72;;;23.75;66.76
79150;BME280;68563;45.644;13.782;2023-09-19T05:55:06;100655.00;;;23.80;66.92
79150;BME280;68563;45.644;13.782;2023-09-19T05:57:35;100652.69;;;23.88;66.39
79150;BME280;68563;45.644;13.782;2023-09-19T06:00:01;100655.03;;;23.93;66.37
79150;BME280;68563;45.644;13.782;2023-09-19T06:02:26;100664.56;;;24.08;65.90
79150;BME280;68563;45.644;13.782;2023-09-19T06:04:54;100659.03;;;24.24;64.70
79150;BME280;68563;45.644;13.782;2023-09-19T06:07:21;100668.53;;;24.40;64.36
79150;BME280;68563;45.644;13.782;2023-09-19T06:09:48;100669.66;;;24.48;64.03
79150;BME280;68563;45.644;13.782;2023-09-19T06:12:13;100666.81;;;24.51;63.99
79150;BME280;68563;45.644;13.782;2023-09-19T06:14:42;100669.34;;;24.53;63.35
79150;BME280;68563;45.644;13.782;2023-09-19T06:17:08;100674.50;;;24.54;63.55
79150;BME280;68563;45.644;13.782;2023-09-19T06:19:34;100675.97;;;24.59;63.65
79150;BME280;68563;45.644;13.782;2023-09-19T06:21:59;100671.88;;;24.67;63.26
79150;BME280;68563;45.644;13.782;2023-09-19T06:24:25;100671.31;;;24.75;63.27
79150;BME280;68563;45.644;13.782;2023-09-19T06:26:51;100678.47;;;24.86;62.74
79150;BME280;68563;45.644;13.782;2023-09-19T06:29:17;100681.53;;;24.93;62.42
79150;BME280;68563;45.644;13.782;2023-09-19T06:31:43;100681.91;;;24.99;62.18
79150;BME280;68563;45.644;13.782;2023-09-19T06:34:10;100679.75;;;25.05;61.69
79150;BME280;68563;45.644;13.782;2023-09-19T06:36:35;100685.22;;;25.14;61.51
79150;BME280;68563;45.644;13.782;2023-09-19T06:39:01;100687.31;;;25.22;61.07
79150;BME280;68563;45.644;13.782;2023-09-19T06:41:29;100689.00;;;25.23;61.07
79150;BME280;68563;45.644;13.782;2023-09-19T06:43:55;100701.78;;;25.29;60.65
79150;BME280;68563;45.644;13.782;2023-09-19T06:46:20;100701.13;;;25.39;60.15
79150;BME280;68563;45.644;13.782;2023-09-19T06:48:46;100699.06;;;25.42;60.34
79150;BME280;68563;45.644;13.782;2023-09-19T06:51:13;100711.78;;;25.50;60.27
79150;BME280;68563;45.644;13.782;2023-09-19T06:53:41;100712.59;;;25.51;59.92
79150;BME280;68563;45.644;13.782;2023-09-19T06:56:07;100704.31;;;25.55;59.53
79150;BME280;68563;45.644;13.782;2023-09-19T06:58:32;100708.19;;;25.62;59.49
79150;BME280;68563;45.644;13.782;2023-09-19T07:00:58;100714.22;;;25.64;59.64
79150;BME280;68563;45.644;13.782;2023-09-19T07:03:23;100719.81;;;25.73;59.40
79150;BME280;68563;45.644;13.782;2023-09-19T07:05:51;100717.84;;;25.75;59.12
79150;BME280;68563;45.644;13.782;2023-09-19T07:08:17;100729.69;;;25.82;58.19
79150;BME280;68563;45.644;13.782;2023-09-19T07:10:45;100727.53;;;25.87;58.37
79150;BME280;68563;45.644;13.782;2023-09-19T07:13:14;100735.84;;;25.94;58.40
79150;BME280;68563;45.644;13.782;2023-09-19T07:15:42;100734.03;;;25.94;58.30
79150;BME280;68563;45.644;13.782;2023-09-19T07:18:16;100735.03;;;26.05;58.00
79150;BME280;68563;45.644;13.782;2023-09-19T07:20:42;100725.19;;;26.07;57.59
79150;BME280;68563;45.644;13.782;2023-09-19T07:25:44;100748.13;;;26.08;57.23
79150;BME280;68563;45.644;13.782;2023-09-19T07:28:09;100751.38;;;26.11;57.36
79150;BME280;68563;45.644;13.782;2023-09-19T07:30:38;100752.69;;;26.17;57.63
79150;BME280;68563;45.644;13.782;2023-09-19T07:33:04;100753.91;;;26.24;57.10
79150;BME280;68563;45.644;13.782;2023-09-19T07:35:30;100763.31;;;26.40;56.72
79150;BME280;68563;45.644;13.782;2023-09-19T07:37:56;100766.94;;;26.50;56.47
79150;BME280;68563;45.644;13.782;2023-09-19T07:40:26;100773.22;;;26.60;55.36
79150;BME280;68563;45.644;13.782;2023-09-19T07:42:56;100782.13;;;26.71;54.60
79150;BME280;68563;45.644;13.782;2023-09-19T07:45:22;100775.53;;;26.77;54.12
79150;BME280;68563;45.644;13.782;2023-09-19T07:47:49;100780.34;;;26.83;54.20
79150;BME280;68563;45.644;13.782;2023-09-19T07:50:18;100778.78;;;26.80;53.52
79150;BME280;68563;45.644;13.782;2023-09-19T07:52:44;100785.19;;;26.78;54.37
79150;BME280;68563;45.644;13.782;2023-09-19T07:55:10;100790.63;;;26.76;53.66
79150;BME280;68563;45.644;13.782;2023-09-19T07:57:42;100788.03;;;26.74;53.93
79150;BME280;68563;45.644;13.782;2023-09-19T08:00:09;100791.09;;;26.70;54.27
79150;BME280;68563;45.644;13.782;2023-09-19T08:02:39;100789.88;;;26.63;53.80
79150;BME280;68563;45.644;13.782;2023-09-19T08:05:05;100789.38;;;26.57;54.55
79150;BME280;68563;45.644;13.782;2023-09-19T08:07:40;100800.25;;;26.54;54.65
79150;BME280;68563;45.644;13.782;2023-09-19T08:10:07;100801.44;;;26.50;54.93
79150;BME280;68563;45.644;13.782;2023-09-19T08:12:40;100797.34;;;26.46;54.83
79150;BME280;68563;45.644;13.782;2023-09-19T08:15:20;100798.31;;;26.45;54.42
79150;BME280;68563;45.644;13.782;2023-09-19T08:17:46;100797.84;;;26.40;54.35
79150;BME280;68563;45.644;13.782;2023-09-19T08:20:12;100802.31;;;26.39;54.78
79150;BME280;68563;45.644;13.782;2023-09-19T08:22:47;100807.63;;;26.39;54.19
79150;BME280;68563;45.644;13.782;2023-09-19T08:25:14;100804.38;;;26.36;54.90
79150;BME280;68563;45.644;13.782;2023-09-19T08:27:43;100806.28;;;26.34;54.70
79150;BME280;68563;45.644;13.782;2023-09-19T08:30:11;100795.19;;;26.40;54.67
79150;BME280;68563;45.644;13.782;2023-09-19T08:32:36;100793.88;;;26.46;54.46
79150;BME280;68563;45.644;13.782;2023-09-19T08:35:02;100789.78;;;26.53;53.78
79150;BME280;68563;45.644;13.782;2023-09-19T08:37:29;100794.69;;;26.57;53.22
79150;BME280;68563;45.644;13.782;2023-09-19T08:39:55;100789.03;;;26.62;53.07
79150;BME280;68563;45.644;13.782;2023-09-19T08:42:20;100781.78;;;26.64;52.74
79150;BME280;68563;45.644;13.782;2023-09-19T08:44:46;100797.22;;;26.70;53.07
79150;BME280;68563;45.644;13.782;2023-09-19T08:47:15;100799.75;;;26.72;52.86
79150;BME280;68563;45.644;13.782;2023-09-19T08:50:06;100795.19;;;26.74;52.54
79150;BME280;68563;45.644;13.782;2023-09-19T08:52:43;100803.66;;;26.79;51.93
79150;BME280;68563;45.644;13.782;2023-09-19T08:55:13;100814.19;;;26.81;52.38
79150;BME280;68563;45.644;13.782;2023-09-19T08:57:45;100805.22;;;26.82;52.34
79150;BME280;68563;45.644;13.782;2023-09-19T09:00:15;100809.94;;;26.78;52.36
79150;BME280;68563;45.644;13.782;2023-09-19T09:02:42;100812.47;;;26.80;52.65
79150;BME280;68563;45.644;13.782;2023-09-19T09:05:11;100814.75;;;26.73;52.80
79150;BME280;68563;45.644;13.782;2023-09-19T09:07:38;100807.50;;;26.64;53.31
79150;BME280;68563;45.644;13.782;2023-09-19T09:10:04;100812.69;;;26.65;53.60
79150;BME280;68563;45.644;13.782;2023-09-19T09:12:30;100813.88;;;26.61;53.64
79150;BME280;68563;45.644;13.782;2023-09-19T09:14:56;100823.56;;;26.62;53.73
79150;BME280;68563;45.644;13.782;2023-09-19T09:17:25;100821.25;;;26.57;54.00
79150;BME280;68563;45.644;13.782;2023-09-19T09:19:53;100816.31;;;26.53;53.99
79150;BME280;68563;45.644;13.782;2023-09-19T09:22:19;100820.56;;;26.55;54.00
79150;BME280;68563;45.644;13.782;2023-09-19T09:24:57;100818.72;;;26.56;53.75
79150;BME280;68563;45.644;13.782;2023-09-19T09:27:23;100820.28;;;26.58;54.11
79150;BME280;68563;45.644;13.782;2023-09-19T09:29:50;100813.28;;;26.57;54.18
79150;BME280;68563;45.644;13.782;2023-09-19T09:32:20;100817.75;;;26.57;53.83
79150;BME280;68563;45.644;13.782;2023-09-19T09:34:49;100825.59;;;26.58;54.02
79150;BME280;68563;45.644;13.782;2023-09-19T09:37:16;100827.31;;;26.59;54.27
79150;BME280;68563;45.644;13.782;2023-09-19T09:39:58;100830.22;;;26.56;54.45
79150;BME280;68563;45.644;13.782;2023-09-19T09:42:33;100838.41;;;26.53;54.90
79150;BME280;68563;45.644;13.782;2023-09-19T09:45:20;100851.91;;;26.50;55.30
79150;BME280;68563;45.644;13.782;2023-09-19T09:48:15;100853.13;;;26.46;57.04
79150;BME280;68563;45.644;13.782;2023-09-19T09:50:47;100859.03;;;26.38;58.79
79150;BME280;68563;45.644;13.782;2023-09-19T09:53:21;100869.06;;;26.35;58.55
79150;BME280;68563;45.644;13.782;2023-09-19T09:58:36;100924.19;;;26.31;58.16
79150;BME280;68563;45.644;13.782;2023-09-19T10:01:03;100921.56;;;26.07;51.01
79150;BME280;68563;45.644;13.782;2023-09-19T10:03:39;100916.63;;;25.89;45.64
79150;BME280;68563;45.644;13.782;2023-09-19T10:06:07;100929.28;;;25.86;48.19
79150;BME280;68563;45.644;13.782;2023-09-19T10:09:06;100902.03;;;25.59;44.55
79150;BME280;68563;45.644;13.782;2023-09-19T10:11:32;100914.19;;;25.38;44.18
79150;BME280;68563;45.644;13.782;2023-09-19T10:14:00;100911.22;;;25.16;45.13
79150;BME280;68563;45.644;13.782;2023-09-19T10:16:32;100902.75;;;25.11;46.09
79150;BME280;68563;45.644;13.782;2023-09-19T10:19:01;100908.06;;;24.98;44.28
79150;BME280;68563;45.644;13.782;2023-09-19T10:21:28;100897.38;;;25.00;45.34
79150;BME280;68563;45.644;13.782;2023-09-19T10:23:58;100892.06;;;24.87;43.59
79150;BME280;68563;45.644;13.782;2023-09-19T10:26:25;100896.00;;;24.68;43.35
79150;BME280;68563;45.644;13.782;2023-09-19T10:28:51;100903.38;;;24.63;44.23
79150;BME280;68563;45.644;13.782;2023-09-19T10:31:20;100903.38;;;24.63;44.31
79150;BME280;68563;45.644;13.782;2023-09-19T10:33:49;100902.31;;;24.53;44.88
79150;BME280;68563;45.644;13.782;2023-09-19T10:36:16;100899.38;;;24.58;44.54
79150;BME280;68563;45.644;13.782;2023-09-19T10:38:43;100909.63;;;24.49;44.65
79150;BME280;68563;45.644;13.782;2023-09-19T10:41:14;100902.31;;;24.53;44.77
79150;BME280;68563;45.644;13.782;2023-09-19T10:43:42;100906.34;;;24.46;45.29
79150;BME280;68563;45.644;13.782;2023-09-19T10:46:10;100893.94;;;24.46;44.02
79150;BME280;68563;45.644;13.782;2023-09-19T10:48:38;100893.41;;;24.41;44.94
79150;BME280;68563;45.644;13.782;2023-09-19T10:51:14;100891.28;;;24.46;45.42
79150;BME280;68563;45.644;13.782;2023-09-19T10:53:45;100879.31;;;24.53;45.58
79150;BME280;68563;45.644;13.782;2023-09-19T10:56:19;100876.78;;;24.52;45.46
79150;BME280;68563;45.644;13.782;2023-09-19T10:58:47;100881.78;;;24.69;44.96
79150;BME280;68563;45.644;13.782;2023-09-19T11:01:14;100885.06;;;24.73;45.18
79150;BME280;68563;45.644;13.782;2023-09-19T11:03:41;100880.97;;;24.82;45.04
79150;BME280;68563;45.644;13.782;2023-09-19T11:06:12;100876.06;;;24.89;44.98
79150;BME280;68563;45.644;13.782;2023-09-19T11:09:01;100868.53;;;24.95;45.28
79150;BME280;68563;45.644;13.782;2023-09-19T11:11:48;100860.91;;;25.04;45.08
79150;BME280;68563;45.644;13.782;2023-09-19T11:30:51;100843.84;;;25.45;43.07
79150;BME280;68563;45.644;13.782;2023-09-19T11:46:53;100835.28;;;25.66;44.41
79150;BME280;68563;45.644;13.782;2023-09-19T11:49:26;100842.25;;;25.67;45.17
79150;BME280;68563;45.644;13.782;2023-09-19T11:51:55;100828.56;;;25.73;44.28
79150;BME280;68563;45.644;13.782;2023-09-19T11:54:21;100838.91;;;25.76;44.39
79150;BME280;68563;45.644;13.782;2023-09-19T11:56:53;100830.63;;;25.80;43.77
79150;BME280;68563;45.644;13.782;2023-09-19T11:59:27;100839.06;;;25.86;43.36
79150;BME280;68563;45.644;13.782;2023-09-19T12:01:57;100831.72;;;25.89;43.50
79150;BME280;68563;45.644;13.782;2023-09-19T12:04:39;100830.63;;;25.92;44.03
79150;BME280;68563;45.644;13.782;2023-09-19T12:07:11;100829.69;;;25.93;43.04
79150;BME280;68563;45.644;13.782;2023-09-19T12:10:03;100822.34;;;25.96;42.22
79150;BME280;68563;45.644;13.782;2023-09-19T12:12:29;100822.13;;;26.00;42.07
79150;BME280;68563;45.644;13.782;2023-09-19T12:14:56;100820.59;;;26.08;41.08
79150;BME280;68563;45.644;13.782;2023-09-19T12:17:24;100825.13;;;26.06;40.84
79150;BME280;68563;45.644;13.782;2023-09-19T12:20:01;100815.69;;;26.15;40.23
79150;BME280;68563;45.644;13.782;2023-09-19T12:22:46;100818.34;;;26.15;39.80
79150;BME280;68563;45.644;13.782;2023-09-19T12:25:15;100809.38;;;26.16;40.70
79150;BME280;68563;45.644;13.782;2023-09-19T12:30:12;100826.53;;;26.23;39.51
79150;BME280;68563;45.644;13.782;2023-09-19T12:32:40;100831.63;;;26.26;39.08
79150;BME280;68563;45.644;13.782;2023-09-19T12:35:08;100814.38;;;26.32;38.52
79150;BME280;68563;45.644;13.782;2023-09-19T12:37:37;100827.75;;;26.31;39.15
79150;BME280;68563;45.644;13.782;2023-09-19T12:40:07;100824.63;;;26.37;39.25
79150;BME280;68563;45.644;13.782;2023-09-19T12:42:48;100816.91;;;26.34;39.63
79150;BME280;68563;45.644;13.782;2023-09-19T12:45:15;100818.69;;;26.33;39.76
79150;BME280;68563;45.644;13.782;2023-09-19T12:48:24;100827.06;;;26.40;40.54
79150;BME280;68563;45.644;13.782;2023-09-19T12:51:03;100827.66;;;26.43;40.66
79150;BME280;68563;45.644;13.782;2023-09-19T12:53:32;100830.19;;;26.45;40.88
79150;BME280;68563;45.644;13.782;2023-09-19T12:55:59;100824.88;;;26.45;40.93
79150;BME280;68563;45.644;13.782;2023-09-19T12:58:25;100828.38;;;26.46;41.18
79150;BME280;68563;45.644;13.782;2023-09-19T13:00:50;100824.66;;;26.59;40.77
79150;BME280;68563;45.644;13.782;2023-09-19T13:03:27;100813.41;;;26.56;41.95
79150;BME280;68563;45.644;13.782;2023-09-19T13:06:03;100816.31;;;26.53;42.50
79150;BME280;68563;45.644;13.782;2023-09-19T13:08:37;100814.03;;;26.48;43.58
79150;BME280;68563;45.644;13.782;2023-09-19T13:11:16;100812.34;;;26.47;43.89
79150;BME280;68563;45.644;13.782;2023-09-19T13:14:13;100811.13;;;26.40;44.34
79150;BME280;68563;45.644;13.782;2023-09-19T13:16:53;100810.75;;;26.44;45.88
79150;BME280;68563;45.644;13.782;2023-09-19T13:22:35;100818.84;;;26.43;46.64
79150;BME280;68563;45.644;13.782;2023-09-19T13:24:51;100812.22;;;26.37;46.25
79150;BME280;68563;45.644;13.782;2023-09-19T13:27:17;100818.84;;;26.43;46.20
79150;BME280;68563;45.644;13.782;2023-09-19T13:29:42;100822.47;;;26.42;46.25
79150;BME280;68563;45.644;13.782;2023-09-19T13:32:07;100816.31;;;26.41;45.60
79150;BME280;68563;45.644;13.782;2023-09-19T13:34:36;100824.16;;;26.43;44.36
79150;BME280;68563;45.644;13.782;2023-09-19T13:37:03;100815.34;;;26.42;44.56
79150;BME280;68563;45.644;13.782;2023-09-19T13:39:29;100818.00;;;26.42;45.04
79150;BME280;68563;45.644;13.782;2023-09-19T13:41:55;100819.81;;;26.42;45.20
79150;BME280;68563;45.644;13.782;2023-09-19T13:44:20;100819.56;;;26.45;45.36
79150;BME280;68563;45.644;13.782;2023-09-19T13:46:46;100820.78;;;26.41;45.74